sensor_id;sensor_type;location;lat;lon;timestamp;P1;durP1;ratioP1;P2;durP2;ratioP2
73779;SDS011;62093;37.614;15.072;2023-02-02T00:01:34;8.07;;;5.53;;
73779;SDS011;62093;37.614;15.072;2023-02-02T00:03:59;9.00;;;5.82;;
73779;SDS011;62093;37.614;15.072;2023-02-02T00:06:26;8.45;;;5.43;;
73779;SDS011;62093;37.614;15.072;2023-02-02T00:08:54;8.63;;;5.75;;
73779;SDS011;62093;37.614;15.072;2023-02-02T00:11:21;8.30;;;5.77;;
73779;SDS011;62093;37.614;15.072;2023-02-02T00:13:47;8.88;;;5.38;;
73779;SDS011;62093;37.614;15.072;2023-02-02T00:16:20;8.90;;;5.80;;
73779;SDS011;62093;37.614;15.072;2023-02-02T00:18:47;9.23;;;5.97;;
73779;SDS011;62093;37.614;15.072;2023-02-02T00:21:13;10.48;;;6.07;;
73779;SDS011;62093;37.614;15.072;2023-02-02T00:23:39;10.25;;;6.03;;
73779;SDS011;62093;37.614;15.072;2023-02-02T00:26:05;9.40;;;5.90;;
73779;SDS011;62093;37.614;15.072;2023-02-02T00:28:31;10.23;;;6.20;;
73779;SDS011;62093;37.614;15.072;2023-02-02T00:30:56;8.43;;;5.30;;
73779;SDS011;62093;37.614;15.072;2023-02-02T00:33:22;8.43;;;5.63;;
73779;SDS011;62093;37.614;15.072;2023-02-02T00:35:50;7.90;;;5.18;;
73779;SDS011;62093;37.614;15.072;2023-02-02T00:38:19;8.27;;;5.40;;
73779;SDS011;62093;37.614;15.072;2023-02-02T00:40:45;8.13;;;5.30;;
73779;SDS011;62093;37.614;15.072;2023-02-02T00:43:10;8.02;;;5.32;;
73779;SDS011;62093;37.614;15.072;2023-02-02T00:45:36;7.93;;;5.20;;
73779;SDS011;62093;37.614;15.072;2023-02-02T00:48:03;8.67;;;5.20;;
73779;SDS011;62093;37.614;15.072;2023-02-02T00:50:29;8.65;;;5.53;;
73779;SDS011;62093;37.614;15.072;2023-02-02T00:52:55;8.68;;;5.35;;
73779;SDS011;62093;37.614;15.072;2023-02-02T00:55:24;7.60;;;5.13;;
73779;SDS011;62093;37.614;15.072;2023-02-02T00:57:52;7.43;;;4.97;;
73779;SDS011;62093;37.614;15.072;2023-02-02T01:00:20;8.67;;;5.37;;
73779;SDS011;62093;37.614;15.072;2023-02-02T01:02:51;7.88;;;5.00;;
73779;SDS011;62093;37.614;15.072;2023-02-02T01:05:18;7.40;;;4.97;;
73779;SDS011;62093;37.614;15.072;2023-02-02T01:07:44;8.40;;;5.10;;
73779;SDS011;62093;37.614;15.072;2023-02-02T01:10:14;7.75;;;5.22;;
73779;SDS011;62093;37.614;15.072;2023-02-02T01:12:43;8.47;;;5.00;;
73779;SDS011;62093;37.614;15.072;2023-02-02T01:15:10;8.32;;;5.13;;
73779;SDS011;62093;37.614;15.072;2023-02-02T01:17:37;7.88;;;4.70;;
73779;SDS011;62093;37.614;15.072;2023-02-02T01:20:04;7.65;;;5.00;;
73779;SDS011;62093;37.614;15.072;2023-02-02T01:22:31;7.80;;;5.22;;
73779;SDS011;62093;37.614;15.072;2023-02-02T01:24:58;8.10;;;5.07;;
73779;SDS011;62093;37.614;15.072;2023-02-02T01:27:24;8.52;;;5.10;;
73779;SDS011;62093;37.614;15.072;2023-02-02T01:29:50;8.70;;;4.90;;
73779;SDS011;62093;37.614;15.072;2023-02-02T01:32:16;7.83;;;5.00;;
73779;SDS011;62093;37.614;15.072;2023-02-02T01:34:41;7.70;;;4.38;;
73779;SDS011;62093;37.614;15.072;2023-02-02T01:37:09;8.20;;;5.40;;
73779;SDS011;62093;37.614;15.072;2023-02-02T01:39:35;8.60;;;5.33;;
73779;SDS011;62093;37.614;15.072;2023-02-02T01:42:02;8.40;;;5.50;;
73779;SDS011;62093;37.614;15.072;2023-02-02T01:47:48;7.80;;;4.85;;
73779;SDS011;62093;37.614;15.072;2023-02-02T01:50:17;7.65;;;4.95;;
73779;SDS011;62093;37.614;15.072;2023-02-02T01:52:46;8.50;;;5.30;;
73779;SDS011;62093;37.614;15.072;2023-02-02T01:55:14;8.63;;;5.40;;
73779;SDS011;62093;37.614;15.072;2023-02-02T01:57:44;7.82;;;4.60;;
73779;SDS011;62093;37.614;15.072;2023-02-02T02:00:16;8.80;;;5.38;;
73779;SDS011;62093;37.614;15.072;2023-02-02T02:02:49;7.13;;;4.47;;
73779;SDS011;62093;37.614;15.072;2023-02-02T02:05:22;7.00;;;4.47;;
73779;SDS011;62093;37.614;15.072;2023-02-02T02:07:59;7.50;;;4.80;;
73779;SDS011;62093;37.614;15.072;2023-02-02T02:10:30;6.57;;;4.57;;
73779;SDS011;62093;37.614;15.072;2023-02-02T02:12:56;7.90;;;4.70;;
73779;SDS011;62093;37.614;15.072;2023-02-02T02:15:23;7.78;;;4.70;;
73779;SDS011;62093;37.614;15.072;2023-02-02T02:18:16;7.60;;;4.50;;
73779;SDS011;62093;37.614;15.072;2023-02-02T02:21:04;7.27;;;4.40;;
73779;SDS011;62093;37.614;15.072;2023-02-02T02:27:32;7.90;;;4.50;;
73779;SDS011;62093;37.614;15.072;2023-02-02T02:41:36;7.75;;;4.75;;
73779;SDS011;62093;37.614;15.072;2023-02-02T02:44:10;7.35;;;4.40;;
73779;SDS011;62093;37.614;15.072;2023-02-02T02:46:39;7.28;;;4.13;;
73779;SDS011;62093;37.614;15.072;2023-02-02T02:49:06;7.83;;;4.87;;
73779;SDS011;62093;37.614;15.072;2023-02-02T02:54:31;7.68;;;4.60;;
73779;SDS011;62093;37.614;15.072;2023-02-02T02:59:48;6.20;;;4.18;;
73779;SDS011;62093;37.614;15.072;2023-02-02T03:07:49;8.25;;;5.20;;
73779;SDS011;62093;37.614;15.072;2023-02-02T03:10:21;6.55;;;4.30;;
73779;SDS011;62093;37.614;15.072;2023-02-02T03:12:51;7.05;;;4.18;;
73779;SDS011;62093;37.614;15.072;2023-02-02T03:15:17;7.33;;;4.20;;
73779;SDS011;62093;37.614;15.072;2023-02-02T03:17:44;7.10;;;4.60;;
73779;SDS011;62093;37.614;15.072;2023-02-02T03:20:12;8.02;;;4.68;;
73779;SDS011;62093;37.614;15.072;2023-02-02T03:22:38;7.25;;;4.70;;
73779;SDS011;62093;37.614;15.072;2023-02-02T03:25:04;6.50;;;4.00;;
73779;SDS011;62093;37.614;15.072;2023-02-02T03:27:31;7.43;;;4.63;;
73779;SDS011;62093;37.614;15.072;2023-02-02T03:29:57;6.72;;;4.22;;
73779;SDS011;62093;37.614;15.072;2023-02-02T03:32:23;6.70;;;4.40;;
73779;SDS011;62093;37.614;15.072;2023-02-02T03:34:49;6.83;;;4.33;;
73779;SDS011;62093;37.614;15.072;2023-02-02T03:37:15;6.75;;;4.10;;
73779;SDS011;62093;37.614;15.072;2023-02-02T03:39:41;7.10;;;4.57;;
73779;SDS011;62093;37.614;15.072;2023-02-02T03:42:07;7.40;;;4.53;;
73779;SDS011;62093;37.614;15.072;2023-02-02T03:44:33;6.97;;;3.97;;
73779;SDS011;62093;37.614;15.072;2023-02-02T03:46:58;6.87;;;4.23;;
73779;SDS011;62093;37.614;15.072;2023-02-02T03:49:24;6.75;;;4.10;;
73779;SDS011;62093;37.614;15.072;2023-02-02T03:51:50;6.13;;;4.03;;
73779;SDS011;62093;37.614;15.072;2023-02-02T03:54:15;6.85;;;4.13;;
73779;SDS011;62093;37.614;15.072;2023-02-02T03:56:41;6.50;;;4.20;;
73779;SDS011;62093;37.614;15.072;2023-02-02T03:59:07;7.07;;;4.28;;
73779;SDS011;62093;37.614;15.072;2023-02-02T04:01:33;6.37;;;4.30;;
73779;SDS011;62093;37.614;15.072;2023-02-02T04:03:58;7.07;;;3.90;;
73779;SDS011;62093;37.614;15.072;2023-02-02T04:06:24;6.97;;;4.03;;
73779;SDS011;62093;37.614;15.072;2023-02-02T04:08:50;7.03;;;3.83;;
73779;SDS011;62093;37.614;15.072;2023-02-02T04:11:17;6.50;;;4.20;;
73779;SDS011;62093;37.614;15.072;2023-02-02T04:13:43;6.47;;;3.78;;
73779;SDS011;62093;37.614;15.072;2023-02-02T04:16:10;7.27;;;4.50;;
73779;SDS011;62093;37.614;15.072;2023-02-02T04:18:36;7.97;;;4.47;;
73779;SDS011;62093;37.614;15.072;2023-02-02T04:21:03;6.55;;;4.10;;
73779;SDS011;62093;37.614;15.072;2023-02-02T04:23:30;6.70;;;4.15;;
73779;SDS011;62093;37.614;15.072;2023-02-02T04:25:56;6.20;;;3.78;;
73779;SDS011;62093;37.614;15.072;2023-02-02T04:28:22;6.07;;;3.90;;
73779;SDS011;62093;37.614;15.072;2023-02-02T04:30:49;7.03;;;4.40;;
73779;SDS011;62093;37.614;15.072;2023-02-02T04:33:15;7.30;;;4.18;;
73779;SDS011;62093;37.614;15.072;2023-02-02T04:35:42;8.82;;;4.85;;
73779;SDS011;62093;37.614;15.072;2023-02-02T04:38:08;7.70;;;4.65;;
73779;SDS011;62093;37.614;15.072;2023-02-02T04:40:36;7.20;;;3.90;;
73779;SDS011;62093;37.614;15.072;2023-02-02T04:43:06;6.85;;;4.47;;
73779;SDS011;62093;37.614;15.072;2023-02-02T04:45:33;6.20;;;3.85;;
73779;SDS011;62093;37.614;15.072;2023-02-02T04:47:59;8.27;;;4.63;;
73779;SDS011;62093;37.614;15.072;2023-02-02T04:50:25;8.15;;;4.68;;
73779;SDS011;62093;37.614;15.072;2023-02-02T04:52:51;8.40;;;4.43;;
73779;SDS011;62093;37.614;15.072;2023-02-02T04:55:16;7.10;;;4.15;;
73779;SDS011;62093;37.614;15.072;2023-02-02T04:57:42;7.95;;;4.63;;
73779;SDS011;62093;37.614;15.072;2023-02-02T05:00:09;6.53;;;3.67;;
73779;SDS011;62093;37.614;15.072;2023-02-02T05:02:38;6.32;;;3.85;;
73779;SDS011;62093;37.614;15.072;2023-02-02T05:05:06;7.05;;;3.97;;
73779;SDS011;62093;37.614;15.072;2023-02-02T05:07:35;6.97;;;3.90;;
73779;SDS011;62093;37.614;15.072;2023-02-02T05:10:02;7.87;;;4.20;;
73779;SDS011;62093;37.614;15.072;2023-02-02T05:12:29;6.55;;;3.65;;
73779;SDS011;62093;37.614;15.072;2023-02-02T05:14:54;6.80;;;3.90;;
73779;SDS011;62093;37.614;15.072;2023-02-02T05:17:20;6.18;;;3.67;;
73779;SDS011;62093;37.614;15.072;2023-02-02T05:19:46;6.53;;;3.57;;
73779;SDS011;62093;37.614;15.072;2023-02-02T05:22:12;7.72;;;4.15;;
73779;SDS011;62093;37.614;15.072;2023-02-02T05:24:38;6.63;;;3.70;;
73779;SDS011;62093;37.614;15.072;2023-02-02T05:27:03;6.45;;;3.70;;
73779;SDS011;62093;37.614;15.072;2023-02-02T05:29:29;6.85;;;3.80;;
73779;SDS011;62093;37.614;15.072;2023-02-02T05:31:56;6.53;;;4.03;;
73779;SDS011;62093;37.614;15.072;2023-02-02T05:34:22;6.78;;;4.10;;
73779;SDS011;62093;37.614;15.072;2023-02-02T05:36:48;6.65;;;3.65;;
73779;SDS011;62093;37.614;15.072;2023-02-02T05:39:15;6.25;;;3.90;;
73779;SDS011;62093;37.614;15.072;2023-02-02T05:41:40;6.87;;;3.93;;
73779;SDS011;62093;37.614;15.072;2023-02-02T05:44:07;6.63;;;3.75;;
73779;SDS011;62093;37.614;15.072;2023-02-02T05:46:36;7.25;;;4.03;;
73779;SDS011;62093;37.614;15.072;2023-02-02T05:49:02;6.43;;;3.80;;
73779;SDS011;62093;37.614;15.072;2023-02-02T05:51:33;6.18;;;3.55;;
73779;SDS011;62093;37.614;15.072;2023-02-02T05:54:04;7.28;;;4.00;;
73779;SDS011;62093;37.614;15.072;2023-02-02T05:56:30;6.13;;;3.47;;
73779;SDS011;62093;37.614;15.072;2023-02-02T05:58:56;6.15;;;3.95;;
73779;SDS011;62093;37.614;15.072;2023-02-02T06:01:22;6.77;;;4.03;;
73779;SDS011;62093;37.614;15.072;2023-02-02T06:03:48;6.82;;;4.18;;
73779;SDS011;62093;37.614;15.072;2023-02-02T06:06:13;6.32;;;3.95;;
73779;SDS011;62093;37.614;15.072;2023-02-02T06:08:39;6.60;;;3.80;;
73779;SDS011;62093;37.614;15.072;2023-02-02T06:11:11;6.05;;;3.60;;
73779;SDS011;62093;37.614;15.072;2023-02-02T06:13:38;6.50;;;3.50;;
73779;SDS011;62093;37.614;15.072;2023-02-02T06:16:04;6.43;;;3.70;;
73779;SDS011;62093;37.614;15.072;2023-02-02T06:18:30;6.60;;;3.78;;
73779;SDS011;62093;37.614;15.072;2023-02-02T06:20:59;6.35;;;3.70;;
73779;SDS011;62093;37.614;15.072;2023-02-02T06:23:26;7.13;;;4.10;;
73779;SDS011;62093;37.614;15.072;2023-02-02T06:25:52;6.35;;;3.60;;
73779;SDS011;62093;37.614;15.072;2023-02-02T06:28:18;6.43;;;3.92;;
73779;SDS011;62093;37.614;15.072;2023-02-02T06:30:44;5.75;;;3.53;;
73779;SDS011;62093;37.614;15.072;2023-02-02T06:33:10;7.03;;;4.43;;
73779;SDS011;62093;37.614;15.072;2023-02-02T06:35:36;7.38;;;4.22;;
73779;SDS011;62093;37.614;15.072;2023-02-02T06:38:02;7.55;;;4.03;;
73779;SDS011;62093;37.614;15.072;2023-02-02T06:40:28;6.20;;;3.83;;
73779;SDS011;62093;37.614;15.072;2023-02-02T06:42:57;6.10;;;3.53;;
73779;SDS011;62093;37.614;15.072;2023-02-02T06:45:27;6.47;;;3.58;;
73779;SDS011;62093;37.614;15.072;2023-02-02T06:47:57;6.22;;;3.60;;
73779;SDS011;62093;37.614;15.072;2023-02-02T06:50:25;7.57;;;4.30;;
73779;SDS011;62093;37.614;15.072;2023-02-02T06:52:51;6.27;;;3.60;;
73779;SDS011;62093;37.614;15.072;2023-02-02T06:55:18;6.40;;;3.80;;
73779;SDS011;62093;37.614;15.072;2023-02-02T06:57:44;6.13;;;3.60;;
73779;SDS011;62093;37.614;15.072;2023-02-02T07:00:11;6.20;;;3.75;;
73779;SDS011;62093;37.614;15.072;2023-02-02T07:02:37;5.82;;;3.60;;
73779;SDS011;62093;37.614;15.072;2023-02-02T07:05:03;6.77;;;3.77;;
73779;SDS011;62093;37.614;15.072;2023-02-02T07:07:33;7.07;;;4.05;;
73779;SDS011;62093;37.614;15.072;2023-02-02T07:09:59;7.03;;;3.83;;
73779;SDS011;62093;37.614;15.072;2023-02-02T07:12:25;6.53;;;3.90;;
73779;SDS011;62093;37.614;15.072;2023-02-02T07:14:52;7.15;;;3.78;;
73779;SDS011;62093;37.614;15.072;2023-02-02T07:17:18;6.63;;;3.77;;
73779;SDS011;62093;37.614;15.072;2023-02-02T07:19:44;6.25;;;3.88;;
73779;SDS011;62093;37.614;15.072;2023-02-02T07:22:10;5.97;;;3.72;;
73779;SDS011;62093;37.614;15.072;2023-02-02T07:24:36;6.20;;;3.80;;
73779;SDS011;62093;37.614;15.072;2023-02-02T07:27:04;6.53;;;3.75;;
73779;SDS011;62093;37.614;15.072;2023-02-02T07:29:30;6.28;;;3.72;;
73779;SDS011;62093;37.614;15.072;2023-02-02T07:31:56;6.40;;;3.90;;
73779;SDS011;62093;37.614;15.072;2023-02-02T07:34:22;6.55;;;3.95;;
73779;SDS011;62093;37.614;15.072;2023-02-02T07:36:48;6.22;;;3.83;;
73779;SDS011;62093;37.614;15.072;2023-02-02T07:39:14;6.50;;;3.80;;
73779;SDS011;62093;37.614;15.072;2023-02-02T07:41:40;6.40;;;3.97;;
73779;SDS011;62093;37.614;15.072;2023-02-02T07:44:14;6.28;;;3.80;;
73779;SDS011;62093;37.614;15.072;2023-02-02T07:46:44;6.47;;;3.87;;
73779;SDS011;62093;37.614;15.072;2023-02-02T07:49:11;6.57;;;4.05;;
73779;SDS011;62093;37.614;15.072;2023-02-02T07:51:38;6.18;;;4.03;;
73779;SDS011;62093;37.614;15.072;2023-02-02T07:54:04;6.68;;;4.10;;
73779;SDS011;62093;37.614;15.072;2023-02-02T07:56:30;6.03;;;3.55;;
73779;SDS011;62093;37.614;15.072;2023-02-02T07:58:56;6.37;;;3.93;;
73779;SDS011;62093;37.614;15.072;2023-02-02T08:01:23;6.30;;;3.70;;
73779;SDS011;62093;37.614;15.072;2023-02-02T08:03:50;6.72;;;3.60;;
73779;SDS011;62093;37.614;15.072;2023-02-02T08:06:21;6.13;;;3.50;;
73779;SDS011;62093;37.614;15.072;2023-02-02T08:08:48;5.90;;;3.47;;
73779;SDS011;62093;37.614;15.072;2023-02-02T08:11:16;6.50;;;3.90;;
73779;SDS011;62093;37.614;15.072;2023-02-02T08:13:43;6.68;;;3.92;;
73779;SDS011;62093;37.614;15.072;2023-02-02T08:16:12;6.57;;;3.85;;
73779;SDS011;62093;37.614;15.072;2023-02-02T08:18:38;6.63;;;3.60;;
73779;SDS011;62093;37.614;15.072;2023-02-02T08:21:05;6.65;;;3.90;;
73779;SDS011;62093;37.614;15.072;2023-02-02T08:23:32;7.38;;;4.00;;
73779;SDS011;62093;37.614;15.072;2023-02-02T08:26:11;6.90;;;3.78;;
73779;SDS011;62093;37.614;15.072;2023-02-02T08:28:39;5.97;;;3.90;;
73779;SDS011;62093;37.614;15.072;2023-02-02T08:33:36;5.43;;;3.38;;
73779;SDS011;62093;37.614;15.072;2023-02-02T08:36:03;7.10;;;3.78;;
73779;SDS011;62093;37.614;15.072;2023-02-02T08:38:29;5.93;;;3.30;;
73779;SDS011;62093;37.614;15.072;2023-02-02T08:40:55;6.30;;;4.00;;
73779;SDS011;62093;37.614;15.072;2023-02-02T08:43:29;7.85;;;3.90;;
73779;SDS011;62093;37.614;15.072;2023-02-02T08:45:55;7.80;;;3.90;;
73779;SDS011;62093;37.614;15.072;2023-02-02T08:48:21;6.37;;;3.73;;
73779;SDS011;62093;37.614;15.072;2023-02-02T08:50:53;6.50;;;3.72;;
73779;SDS011;62093;37.614;15.072;2023-02-02T08:53:20;6.03;;;3.83;;
73779;SDS011;62093;37.614;15.072;2023-02-02T08:55:47;6.23;;;3.80;;
73779;SDS011;62093;37.614;15.072;2023-02-02T08:58:13;6.35;;;3.80;;
73779;SDS011;62093;37.614;15.072;2023-02-02T09:00:39;6.43;;;3.80;;
73779;SDS011;62093;37.614;15.072;2023-02-02T09:03:05;6.43;;;3.78;;
73779;SDS011;62093;37.614;15.072;2023-02-02T09:05:31;6.33;;;3.80;;
73779;SDS011;62093;37.614;15.072;2023-02-02T09:07:57;6.13;;;3.53;;
73779;SDS011;62093;37.614;15.072;2023-02-02T09:10:23;5.78;;;3.50;;
73779;SDS011;62093;37.614;15.072;2023-02-02T09:12:48;6.87;;;3.57;;
73779;SDS011;62093;37.614;15.072;2023-02-02T09:15:14;6.40;;;3.55;;
73779;SDS011;62093;37.614;15.072;2023-02-02T09:17:40;6.13;;;3.40;;
73779;SDS011;62093;37.614;15.072;2023-02-02T09:20:06;6.20;;;3.58;;
73779;SDS011;62093;37.614;15.072;2023-02-02T09:22:32;5.78;;;3.35;;
73779;SDS011;62093;37.614;15.072;2023-02-02T09:24:57;5.47;;;3.27;;
73779;SDS011;62093;37.614;15.072;2023-02-02T09:27:23;5.70;;;3.70;;
73779;SDS011;62093;37.614;15.072;2023-02-02T09:29:49;6.88;;;3.55;;
73779;SDS011;62093;37.614;15.072;2023-02-02T09:32:17;6.07;;;3.70;;
73779;SDS011;62093;37.614;15.072;2023-02-02T09:34:43;6.47;;;3.20;;
73779;SDS011;62093;37.614;15.072;2023-02-02T09:37:08;5.60;;;3.40;;
73779;SDS011;62093;37.614;15.072;2023-02-02T09:39:34;6.53;;;3.40;;
73779;SDS011;62093;37.614;15.072;2023-02-02T09:47:42;6.38;;;3.30;;
73779;SDS011;62093;37.614;15.072;2023-02-02T09:55:44;5.57;;;3.33;;
73779;SDS011;62093;37.614;15.072;2023-02-02T09:58:17;6.35;;;3.80;;
73779;SDS011;62093;37.614;15.072;2023-02-02T10:03:24;6.13;;;3.30;;
73779;SDS011;62093;37.614;15.072;2023-02-02T10:08:41;5.68;;;3.28;;
73779;SDS011;62093;37.614;15.072;2023-02-02T10:13:59;5.50;;;3.08;;
73779;SDS011;62093;37.614;15.072;2023-02-02T10:16:46;5.93;;;3.43;;
73779;SDS011;62093;37.614;15.072;2023-02-02T10:19:16;6.85;;;3.70;;
73779;SDS011;62093;37.614;15.072;2023-02-02T10:24:18;6.07;;;3.38;;
73779;SDS011;62093;37.614;15.072;2023-02-02T10:26:51;6.43;;;3.40;;
73779;SDS011;62093;37.614;15.072;2023-02-02T10:34:52;6.25;;;3.60;;
73779;SDS011;62093;37.614;15.072;2023-02-02T10:37:25;6.70;;;3.38;;
73779;SDS011;62093;37.614;15.072;2023-02-02T10:46:12;5.25;;;3.10;;
73779;SDS011;62093;37.614;15.072;2023-02-02T10:48:48;6.40;;;3.03;;
73779;SDS011;62093;37.614;15.072;2023-02-02T10:51:26;5.47;;;3.10;;
73779;SDS011;62093;37.614;15.072;2023-02-02T10:53:53;5.93;;;3.63;;
73779;SDS011;62093;37.614;15.072;2023-02-02T10:56:25;5.63;;;3.03;;
73779;SDS011;62093;37.614;15.072;2023-02-02T10:59:12;6.13;;;3.97;;
73779;SDS011;62093;37.614;15.072;2023-02-02T11:01:43;6.32;;;3.17;;
73779;SDS011;62093;37.614;15.072;2023-02-02T11:04:09;5.88;;;3.80;;
73779;SDS011;62093;37.614;15.072;2023-02-02T11:06:54;6.53;;;3.30;;
73779;SDS011;62093;37.614;15.072;2023-02-02T11:09:25;5.63;;;3.10;;
73779;SDS011;62093;37.614;15.072;2023-02-02T11:12:05;5.97;;;3.55;;
73779;SDS011;62093;37.614;15.072;2023-02-02T11:14:58;5.50;;;3.10;;
73779;SDS011;62093;37.614;15.072;2023-02-02T11:17:32;6.10;;;3.40;;
73779;SDS011;62093;37.614;15.072;2023-02-02T11:19:59;6.00;;;3.43;;
73779;SDS011;62093;37.614;15.072;2023-02-02T11:24:51;5.40;;;2.97;;
73779;SDS011;62093;37.614;15.072;2023-02-02T11:27:27;6.85;;;3.47;;
73779;SDS011;62093;37.614;15.072;2023-02-02T11:29:58;6.23;;;3.47;;
73779;SDS011;62093;37.614;15.072;2023-02-02T11:32:34;4.97;;;3.10;;
73779;SDS011;62093;37.614;15.072;2023-02-02T11:35:21;5.68;;;3.13;;
73779;SDS011;62093;37.614;15.072;2023-02-02T11:38:08;6.10;;;3.40;;
73779;SDS011;62093;37.614;15.072;2023-02-02T11:40:39;6.22;;;3.13;;
73779;SDS011;62093;37.614;15.072;2023-02-02T11:43:16;5.57;;;3.40;;
73779;SDS011;62093;37.614;15.072;2023-02-02T11:45:43;6.65;;;3.08;;
73779;SDS011;62093;37.614;15.072;2023-02-02T11:48:14;5.90;;;3.22;;
73779;SDS011;62093;37.614;15.072;2023-02-02T11:50:46;5.25;;;3.05;;
73779;SDS011;62093;37.614;15.072;2023-02-02T11:53:21;6.55;;;3.20;;
73779;SDS011;62093;37.614;15.072;2023-02-02T11:56:01;5.57;;;3.10;;
73779;SDS011;62093;37.614;15.072;2023-02-02T11:58:47;5.53;;;3.10;;
73779;SDS011;62093;37.614;15.072;2023-02-02T12:01:25;6.13;;;3.20;;
73779;SDS011;62093;37.614;15.072;2023-02-02T12:03:59;5.60;;;2.92;;
73779;SDS011;62093;37.614;15.072;2023-02-02T12:06:35;5.47;;;3.20;;
73779;SDS011;62093;37.614;15.072;2023-02-02T12:09:09;5.30;;;2.80;;
73779;SDS011;62093;37.614;15.072;2023-02-02T12:20:07;6.35;;;3.17;;
73779;SDS011;62093;37.614;15.072;2023-02-02T12:37:14;5.73;;;2.80;;
73779;SDS011;62093;37.614;15.072;2023-02-02T12:53:55;6.00;;;3.28;;
73779;SDS011;62093;37.614;15.072;2023-02-02T12:56:39;6.18;;;3.28;;
73779;SDS011;62093;37.614;15.072;2023-02-02T13:07:34;6.38;;;3.10;;
73779;SDS011;62093;37.614;15.072;2023-02-02T13:12:40;5.18;;;2.70;;
73779;SDS011;62093;37.614;15.072;2023-02-02T13:15:10;5.55;;;2.90;;
73779;SDS011;62093;37.614;15.072;2023-02-02T13:17:42;4.60;;;2.60;;
73779;SDS011;62093;37.614;15.072;2023-02-02T13:23:08;4.90;;;2.58;;
73779;SDS011;62093;37.614;15.072;2023-02-02T13:25:43;5.68;;;3.00;;
73779;SDS011;62093;37.614;15.072;2023-02-02T13:28:24;5.00;;;3.00;;
73779;SDS011;62093;37.614;15.072;2023-02-02T13:31:13;5.50;;;2.77;;
73779;SDS011;62093;37.614;15.072;2023-02-02T13:33:43;6.00;;;3.22;;
73779;SDS011;62093;37.614;15.072;2023-02-02T13:36:19;5.40;;;2.92;;
73779;SDS011;62093;37.614;15.072;2023-02-02T13:38:57;5.28;;;3.10;;
73779;SDS011;62093;37.614;15.072;2023-02-02T13:41:25;4.97;;;2.88;;
73779;SDS011;62093;37.614;15.072;2023-02-02T13:46:38;5.07;;;2.83;;
73779;SDS011;62093;37.614;15.072;2023-02-02T13:58:03;5.70;;;3.47;;
73779;SDS011;62093;37.614;15.072;2023-02-02T14:00:23;5.63;;;2.97;;
73779;SDS011;62093;37.614;15.072;2023-02-02T14:02:55;5.70;;;3.20;;
73779;SDS011;62093;37.614;15.072;2023-02-02T14:05:28;10.60;;;3.05;;
73779;SDS011;62093;37.614;15.072;2023-02-02T14:13:23;5.43;;;3.30;;
73779;SDS011;62093;37.614;15.072;2023-02-02T14:16:41;5.72;;;2.58;;
73779;SDS011;62093;37.614;15.072;2023-02-02T14:19:13;5.38;;;2.63;;
73779;SDS011;62093;37.614;15.072;2023-02-02T14:34:33;5.63;;;2.90;;
73779;SDS011;62093;37.614;15.072;2023-02-02T14:42:30;6.43;;;3.30;;
73779;SDS011;62093;37.614;15.072;2023-02-02T14:45:28;7.50;;;3.25;;
73779;SDS011;62093;37.614;15.072;2023-02-02T14:48:08;5.93;;;3.20;;
73779;SDS011;62093;37.614;15.072;2023-02-02T14:56:05;6.03;;;3.50;;
73779;SDS011;62093;37.614;15.072;2023-02-02T15:04:16;6.15;;;3.03;;
73779;SDS011;62093;37.614;15.072;2023-02-02T15:06:48;5.90;;;3.40;;
73779;SDS011;62093;37.614;15.072;2023-02-02T15:20:07;6.50;;;3.30;;
73779;SDS011;62093;37.614;15.072;2023-02-02T15:25:16;7.07;;;2.92;;
73779;SDS011;62093;37.614;15.072;2023-02-02T15:27:45;6.97;;;3.05;;
73779;SDS011;62093;37.614;15.072;2023-02-02T15:30:17;6.35;;;2.80;;
73779;SDS011;62093;37.614;15.072;2023-02-02T15:32:44;6.10;;;2.90;;
73779;SDS011;62093;37.614;15.072;2023-02-02T15:35:16;5.95;;;2.97;;
73779;SDS011;62093;37.614;15.072;2023-02-02T15:37:48;6.22;;;3.00;;
73779;SDS011;62093;37.614;15.072;2023-02-02T15:40:23;7.07;;;3.30;;
73779;SDS011;62093;37.614;15.072;2023-02-02T15:42:51;6.18;;;3.00;;
73779;SDS011;62093;37.614;15.072;2023-02-02T15:45:32;6.23;;;3.33;;
73779;SDS011;62093;37.614;15.072;2023-02-02T15:48:14;5.90;;;3.05;;
73779;SDS011;62093;37.614;15.072;2023-02-02T15:50:44;5.82;;;2.95;;
73779;SDS011;62093;37.614;15.072;2023-02-02T15:53:15;6.43;;;3.40;;
73779;SDS011;62093;37.614;15.072;2023-02-02T15:55:44;6.78;;;3.38;;
73779;SDS011;62093;37.614;15.072;2023-02-02T15:58:30;5.93;;;2.67;;
73779;SDS011;62093;37.614;15.072;2023-02-02T16:03:32;7.80;;;3.10;;
73779;SDS011;62093;37.614;15.072;2023-02-02T16:06:03;5.68;;;2.90;;
73779;SDS011;62093;37.614;15.072;2023-02-02T16:08:31;6.47;;;3.03;;
73779;SDS011;62093;37.614;15.072;2023-02-02T16:11:17;11.87;;;2.60;;
73779;SDS011;62093;37.614;15.072;2023-02-02T16:13:55;7.20;;;2.50;;
73779;SDS011;62093;37.614;15.072;2023-02-02T16:16:30;25.10;;;5.07;;
73779;SDS011;62093;37.614;15.072;2023-02-02T16:21:29;6.35;;;2.83;;
73779;SDS011;62093;37.614;15.072;2023-02-02T16:23:55;7.80;;;3.07;;
73779;SDS011;62093;37.614;15.072;2023-02-02T16:26:23;6.68;;;3.17;;
73779;SDS011;62093;37.614;15.072;2023-02-02T16:28:52;8.43;;;2.83;;
73779;SDS011;62093;37.614;15.072;2023-02-02T16:31:18;6.28;;;2.60;;
73779;SDS011;62093;37.614;15.072;2023-02-02T16:33:44;7.55;;;2.90;;
73779;SDS011;62093;37.614;15.072;2023-02-02T16:36:24;6.13;;;3.00;;
73779;SDS011;62093;37.614;15.072;2023-02-02T16:38:57;7.32;;;2.75;;
73779;SDS011;62093;37.614;15.072;2023-02-02T16:41:29;6.50;;;2.97;;
73779;SDS011;62093;37.614;15.072;2023-02-02T16:47:41;7.00;;;3.13;;
73779;SDS011;62093;37.614;15.072;2023-02-02T16:55:28;7.53;;;3.10;;
73779;SDS011;62093;37.614;15.072;2023-02-02T16:57:56;7.55;;;2.90;;
73779;SDS011;62093;37.614;15.072;2023-02-02T17:00:27;8.07;;;4.03;;
73779;SDS011;62093;37.614;15.072;2023-02-02T17:03:05;8.07;;;3.33;;
73779;SDS011;62093;37.614;15.072;2023-02-02T17:05:54;6.45;;;3.47;;
73779;SDS011;62093;37.614;15.072;2023-02-02T17:08:27;5.82;;;3.22;;
73779;SDS011;62093;37.614;15.072;2023-02-02T17:11:00;8.40;;;3.55;;
73779;SDS011;62093;37.614;15.072;2023-02-02T17:15:55;7.97;;;4.97;;
73779;SDS011;62093;37.614;15.072;2023-02-02T17:18:21;8.18;;;4.32;;
73779;SDS011;62093;37.614;15.072;2023-02-02T17:20:48;7.95;;;3.90;;
73779;SDS011;62093;37.614;15.072;2023-02-02T17:23:20;9.80;;;4.90;;
73779;SDS011;62093;37.614;15.072;2023-02-02T17:25:47;9.73;;;4.30;;
73779;SDS011;62093;37.614;15.072;2023-02-02T17:28:13;8.95;;;5.57;;
73779;SDS011;62093;37.614;15.072;2023-02-02T17:30:42;12.88;;;7.68;;
73779;SDS011;62093;37.614;15.072;2023-02-02T17:33:11;10.13;;;6.45;;
73779;SDS011;62093;37.614;15.072;2023-02-02T17:35:40;11.03;;;7.03;;
73779;SDS011;62093;37.614;15.072;2023-02-02T17:38:07;9.82;;;6.32;;
73779;SDS011;62093;37.614;15.072;2023-02-02T17:40:33;11.88;;;7.60;;
73779;SDS011;62093;37.614;15.072;2023-02-02T17:42:59;10.32;;;6.25;;
73779;SDS011;62093;37.614;15.072;2023-02-02T17:45:30;10.70;;;6.67;;
73779;SDS011;62093;37.614;15.072;2023-02-02T17:47:57;10.75;;;6.28;;
73779;SDS011;62093;37.614;15.072;2023-02-02T17:50:25;11.27;;;7.03;;
73779;SDS011;62093;37.614;15.072;2023-02-02T17:52:52;11.30;;;6.60;;
73779;SDS011;62093;37.614;15.072;2023-02-02T17:57:46;9.97;;;6.53;;
73779;SDS011;62093;37.614;15.072;2023-02-02T18:00:13;11.43;;;7.43;;
73779;SDS011;62093;37.614;15.072;2023-02-02T18:02:40;12.15;;;7.75;;
73779;SDS011;62093;37.614;15.072;2023-02-02T18:05:06;12.32;;;8.07;;